createdAt,value
2018-05-27T00:03:00.000Z,19.7
2018-05-27T00:08:00.000Z,19.6
2018-05-27T00:13:00.000Z,19.5
2018-05-27T00:18:00.000Z,19.4
2018-05-27T00:23:00.000Z,19.3
2018-05-27T00:28:00.000Z,19.3
2018-05-27T00:33:00.000Z,19.2
2018-05-27T00:38:00.000Z,19.2
2018-05-27T00:43:00.000Z,19.2
2018-05-27T00:48:00.000Z,19.1
2018-05-27T00:53:00.000Z,19.1
2018-05-27T00:58:00.000Z,19.1
2018-05-27T01:03:00.000Z,19.0
2018-05-27T01:08:00.000Z,19.0
2018-05-27T01:13:00.000Z,19.0
2018-05-27T01:18:00.000Z,19.0
2018-05-27T01:23:00.000Z,19.0
2018-05-27T01:28:00.000Z,19.0
2018-05-27T01:33:00.000Z,19.0
2018-05-27T01:38:00.000Z,19.0
2018-05-27T01:43:00.000Z,19.0
2018-05-27T01:48:00.000Z,18.9
2018-05-27T01:53:00.000Z,18.9
2018-05-27T01:58:00.000Z,18.8
2018-05-27T02:03:00.000Z,18.8
2018-05-27T02:08:00.000Z,18.8
2018-05-27T02:30:00.000Z,18.6
2018-05-27T02:35:00.000Z,18.6
2018-05-27T02:40:00.000Z,18.5
2018-05-27T02:45:00.000Z,18.5
2018-05-27T02:50:00.000Z,18.4
2018-05-27T02:55:00.000Z,18.4
2018-05-27T03:00:00.000Z,18.4
2018-05-27T03:05:00.000Z,18.3
2018-05-27T03:10:00.000Z,18.3
2018-05-27T03:15:00.000Z,18.3
2018-05-27T03:20:00.000Z,18.3
2018-05-27T03:25:00.000Z,18.3
2018-05-27T03:30:00.000Z,18.3
2018-05-27T03:35:00.000Z,18.3
2018-05-27T03:40:00.000Z,18.2
2018-05-27T03:56:00.000Z,18.3
2018-05-27T04:07:00.000Z,18.3
2018-05-27T04:17:00.000Z,18.5
2018-05-27T04:22:00.000Z,18.5
2018-05-27T04:27:00.000Z,18.6
2018-05-27T04:32:00.000Z,18.6
2018-05-27T04:37:00.000Z,18.7
2018-05-27T04:42:00.000Z,18.8
2018-05-27T04:47:00.000Z,18.9
2018-05-27T04:52:00.000Z,19.0
2018-05-27T04:57:00.000Z,19.0
2018-05-27T05:02:00.000Z,19.2
2018-05-27T05:07:00.000Z,19.3
2018-05-27T05:12:00.000Z,19.4
2018-05-27T05:17:00.000Z,19.5
2018-05-27T05:22:00.000Z,19.6
2018-05-27T05:27:00.000Z,19.7
2018-05-27T05:32:00.000Z,19.9
2018-05-27T05:37:00.000Z,20.0
2018-05-27T05:42:00.000Z,20.2
2018-05-27T05:47:00.000Z,20.3
2018-05-27T05:52:00.000Z,20.4
2018-05-27T05:57:00.000Z,20.5
2018-05-27T06:02:00.000Z,20.7
2018-05-27T06:07:00.000Z,20.8
2018-05-27T06:12:00.000Z,21.0
2018-05-27T06:17:00.000Z,21.2
2018-05-27T06:22:00.000Z,21.3
2018-05-27T06:27:00.000Z,21.5
2018-05-27T06:32:00.000Z,21.7
2018-05-27T06:37:00.000Z,21.9
2018-05-27T06:43:00.000Z,22.1
2018-05-27T06:48:00.000Z,22.3
2018-05-27T06:53:00.000Z,22.8
2018-05-27T06:58:00.000Z,23.5
2018-05-27T07:03:00.000Z,24.1
2018-05-27T07:08:00.000Z,24.8
2018-05-27T07:13:00.000Z,25.5
2018-05-27T07:18:00.000Z,26.3
2018-05-27T07:23:00.000Z,26.8
2018-05-27T07:28:00.000Z,27.5
2018-05-27T07:33:00.000Z,28.0
2018-05-27T07:38:00.000Z,28.3
2018-05-27T07:43:00.000Z,28.6
2018-05-27T07:48:00.000Z,28.9
2018-05-27T07:53:00.000Z,28.9
2018-05-27T07:58:00.000Z,29.1
2018-05-27T08:03:00.000Z,29.3
2018-05-27T08:08:00.000Z,29.6
2018-05-27T08:13:00.000Z,29.8
2018-05-27T08:18:00.000Z,30.0
2018-05-27T08:23:00.000Z,30.1
2018-05-27T08:28:00.000Z,30.2
2018-05-27T08:33:00.000Z,30.1
2018-05-27T08:38:00.000Z,30.3
2018-05-27T08:43:00.000Z,30.5
2018-05-27T08:48:00.000Z,30.6
2018-05-27T08:53:00.000Z,30.8
2018-05-27T08:58:00.000Z,31.0
2018-05-27T09:03:00.000Z,31.2
2018-05-27T09:08:00.000Z,31.3
2018-05-27T09:13:00.000Z,31.5
2018-05-27T09:18:00.000Z,31.6
2018-05-27T09:23:00.000Z,31.7
2018-05-27T09:28:00.000Z,31.7
2018-05-27T09:33:00.000Z,31.5
2018-05-27T09:38:00.000Z,31.4
2018-05-27T09:43:00.000Z,31.4
2018-05-27T09:48:00.000Z,31.5
2018-05-27T09:53:00.000Z,31.6
2018-05-27T09:58:00.000Z,31.8
2018-05-27T10:03:00.000Z,32.0
2018-05-27T10:08:00.000Z,32.0
2018-05-27T10:13:00.000Z,32.2
2018-05-27T10:18:00.000Z,32.2
2018-05-27T10:23:00.000Z,32.0
2018-05-27T10:28:00.000Z,31.8
2018-05-27T10:33:00.000Z,31.9
2018-05-27T10:38:00.000Z,31.9
2018-05-27T10:43:00.000Z,31.7
2018-05-27T10:48:00.000Z,31.7
2018-05-27T10:53:00.000Z,31.8
2018-05-27T10:58:00.000Z,31.6
2018-05-27T11:03:00.000Z,31.2
2018-05-27T11:08:00.000Z,31.0
2018-05-27T11:13:00.000Z,31.0
2018-05-27T11:18:00.000Z,30.8
2018-05-27T11:23:00.000Z,30.7
2018-05-27T11:28:00.000Z,30.5
2018-05-27T11:33:00.000Z,30.2
2018-05-27T11:38:00.000Z,30.2
2018-05-27T11:43:00.000Z,30.2
2018-05-27T11:48:00.000Z,30.4
2018-05-27T11:53:00.000Z,30.5
2018-05-27T11:58:00.000Z,30.4
2018-05-27T12:03:00.000Z,30.5
2018-05-27T12:08:00.000Z,30.5
2018-05-27T12:13:00.000Z,30.6
2018-05-27T12:18:00.000Z,30.7
2018-05-27T12:23:00.000Z,30.6
2018-05-27T12:28:00.000Z,30.2
2018-05-27T12:33:00.000Z,29.8
2018-05-27T12:38:00.000Z,29.3
2018-05-27T12:44:00.000Z,28.9
2018-05-27T12:49:00.000Z,28.8
2018-05-27T12:54:00.000Z,28.7
2018-05-27T12:59:00.000Z,28.7
2018-05-27T13:04:00.000Z,28.7
2018-05-27T13:09:00.000Z,28.7
2018-05-27T13:14:00.000Z,28.6
2018-05-27T13:19:00.000Z,28.7
2018-05-27T13:24:00.000Z,28.9
2018-05-27T13:29:00.000Z,29.0
2018-05-27T13:34:00.000Z,29.0
2018-05-27T13:39:00.000Z,29.0
2018-05-27T13:44:00.000Z,28.8
2018-05-27T13:49:00.000Z,28.6
2018-05-27T13:54:00.000Z,28.4
2018-05-27T13:59:00.000Z,28.3
2018-05-27T14:04:00.000Z,28.1
2018-05-27T14:09:00.000Z,28.0
2018-05-27T14:14:00.000Z,27.9
2018-05-27T14:19:00.000Z,27.7
2018-05-27T14:24:00.000Z,27.6
2018-05-27T14:29:00.000Z,27.5
2018-05-27T14:34:00.000Z,27.4
2018-05-27T14:39:00.000Z,27.3
2018-05-27T14:44:00.000Z,27.3
2018-05-27T14:49:00.000Z,27.2
2018-05-27T14:54:00.000Z,27.2
2018-05-27T14:59:00.000Z,27.1
2018-05-27T15:04:00.000Z,27.1
2018-05-27T15:09:00.000Z,27.1
2018-05-27T15:14:00.000Z,27.0
2018-05-27T15:19:00.000Z,27.1
2018-05-27T15:24:00.000Z,27.0
2018-05-27T15:29:00.000Z,27.0
2018-05-27T15:34:00.000Z,26.9
2018-05-27T15:39:00.000Z,26.9
2018-05-27T15:44:00.000Z,26.9
2018-05-27T15:49:00.000Z,26.9
2018-05-27T15:54:00.000Z,26.9
2018-05-27T15:59:00.000Z,26.8
2018-05-27T16:04:00.000Z,26.8
2018-05-27T16:09:00.000Z,26.7
2018-05-27T16:14:00.000Z,26.7
2018-05-27T16:19:00.000Z,26.6
2018-05-27T16:24:00.000Z,26.6
2018-05-27T16:29:00.000Z,26.5
2018-05-27T16:34:00.000Z,26.4
2018-05-27T16:39:00.000Z,26.4
2018-05-27T16:44:00.000Z,26.3
2018-05-27T16:49:00.000Z,26.3
2018-05-27T16:54:00.000Z,26.2
2018-05-27T16:59:00.000Z,26.2
2018-05-27T17:04:00.000Z,26.1
2018-05-27T17:09:00.000Z,26.0
2018-05-27T17:14:00.000Z,26.0
2018-05-27T17:19:00.000Z,26.0
2018-05-27T17:24:00.000Z,26.0
2018-05-27T17:29:00.000Z,25.9
2018-05-27T17:34:00.000Z,25.8
2018-05-27T17:39:00.000Z,25.8
2018-05-27T17:44:00.000Z,25.7
2018-05-27T17:49:00.000Z,25.6
2018-05-27T17:54:00.000Z,25.5
2018-05-27T17:59:00.000Z,25.4
2018-05-27T18:04:00.000Z,25.3
2018-05-27T18:09:00.000Z,25.1
2018-05-27T18:14:00.000Z,25.0
2018-05-27T18:19:00.000Z,24.9
2018-05-27T18:24:00.000Z,24.8
2018-05-27T18:29:00.000Z,24.7
2018-05-27T18:34:00.000Z,24.6
2018-05-27T18:39:00.000Z,24.5
2018-05-27T18:44:00.000Z,24.5
2018-05-27T18:49:00.000Z,24.4
2018-05-27T18:55:00.000Z,24.3
2018-05-27T19:00:00.000Z,24.2
2018-05-27T19:05:00.000Z,24.1
2018-05-27T19:10:00.000Z,24.0
2018-05-27T19:15:00.000Z,24.0
2018-05-27T19:20:00.000Z,23.9
2018-05-27T19:25:00.000Z,23.9
2018-05-27T19:30:00.000Z,23.8
2018-05-27T19:35:00.000Z,23.8
2018-05-27T19:40:00.000Z,23.7
2018-05-27T19:45:00.000Z,23.6
2018-05-27T19:50:00.000Z,23.6
2018-05-27T19:55:00.000Z,23.5
2018-05-27T20:00:00.000Z,23.4
2018-05-27T20:05:00.000Z,23.3
2018-05-27T20:10:00.000Z,23.2
2018-05-27T20:15:00.000Z,23.2
2018-05-27T20:20:00.000Z,23.1
2018-05-27T20:25:00.000Z,23.0
2018-05-27T20:30:00.000Z,23.0
2018-05-27T20:35:00.000Z,22.9
2018-05-27T20:40:00.000Z,22.8
2018-05-27T20:45:00.000Z,22.8
2018-05-27T20:50:00.000Z,22.7
2018-05-27T20:55:00.000Z,22.6
2018-05-27T21:00:00.000Z,22.5
2018-05-27T21:05:00.000Z,22.5
2018-05-27T21:10:00.000Z,22.4
2018-05-27T21:15:00.000Z,22.3
2018-05-27T21:20:00.000Z,22.3
2018-05-27T21:25:00.000Z,22.2
2018-05-27T21:30:00.000Z,22.1
2018-05-27T21:35:00.000Z,22.1
2018-05-27T21:40:00.000Z,22.0
2018-05-27T21:45:00.000Z,22.0
2018-05-27T21:50:00.000Z,22.0
2018-05-27T21:55:00.000Z,22.0
2018-05-27T22:00:00.000Z,22.0
2018-05-27T22:05:00.000Z,22.0
2018-05-27T22:10:00.000Z,21.9
2018-05-27T22:15:00.000Z,21.9
2018-05-27T22:20:00.000Z,21.9
2018-05-27T22:25:00.000Z,21.9
2018-05-27T22:30:00.000Z,21.8
2018-05-27T22:35:00.000Z,21.8
2018-05-27T22:40:00.000Z,21.7
2018-05-27T22:45:00.000Z,21.7
2018-05-27T22:50:00.000Z,21.6
2018-05-27T22:55:00.000Z,21.6
2018-05-27T23:00:00.000Z,21.6
2018-05-27T23:05:00.000Z,21.5
2018-05-27T23:10:00.000Z,21.5
2018-05-27T23:15:00.000Z,21.5
2018-05-27T23:20:00.000Z,21.5
2018-05-27T23:25:00.000Z,21.5
2018-05-27T23:30:00.000Z,21.4
2018-05-27T23:35:00.000Z,21.4
2018-05-27T23:40:00.000Z,21.4
2018-05-27T23:45:00.000Z,21.3
2018-05-27T23:50:00.000Z,21.3
2018-05-27T23:55:00.000Z,21.3
